Van Nuys, CA (91411)

2:41 PM PDT on April 26, 2015 (GMT -0700)
Valley College Weather Station | | Change Station
CLOSE
Current Station
Personal Weather Station
Location: Valley Glen, CA
Elevation: 699 ft
Nearby Weather Stations
Active Advisory: Wind Advisory Active Notice: Public Information Statement

Elev 699 ft 34.18 °N, 118.42 °W | Updated 0 second ago

Clear
Clear
78.7 °F
Feels Like 78 °F
N
1.2
Wind Variable Wind from SSW
Gusts 5.0 mph

Today
High -- | Low -- °F
--% Chance of Precip.
Yesterday
High -- | Low -- °F
Precip. -- in
6:09 AM 7:33 PM
First Quarter, 59% visible
Pressure 29.92 in
Visibility 10.0 miles
Clouds Clear
Heat Index 78 °F
Dew Point 42 °F
Humidity 27%
Rainfall 0.00 in
Snow Depth Not available.
UV 11 out of 12
Pollen 6.60 out of 12
Air Quality Not available.
Flu Activity Sporadic
METAR KVNY 262051Z 30007KT 10SM CLR 25/00 A2994 RMK AO2 SLP131 T02500000 58016

More Conditions Fewer Conditions

Pressure 29.92 in
Visibility 10.0 miles
Clouds Clear
Heat Index 78 °F
Dew Point 42 °F
Humidity 27%
Rainfall 0.00 in
Snow Depth Not available.
UV 11 out of 12
Pollen 6.60 out of 12
Air Quality Not available.
Flu Activity Sporadic
METAR KVNY 262051Z 30007KT 10SM CLR 25/00 A2994 RMK AO2 SLP131 T02500000 58016

More Conditions Fewer Conditions

The full scope of the disaster following a powerful 7.8-magnitude earthquake in Nepal may not come into view for days, but global charities are already sending emergency aid. Click to see how you can help.

10-Day Weather Forecast

Almanac

Astronomy

Apr. 26, 2015 Rise Set
Actual Time
Civil Twilight
Nautical Twilight
Astronomical Twilight
Moon
Length of Visible Light
Length of Day
Tomorrow will be .
, % of the Moon is Illuminated

Today's Extremes

State Highs State Lows

Community

WunderPhotos

Upload Photos

1,817,132 photos uploaded!

WunderBlogs® & News

Nearby

Air Quality

  Air Quality AQ Index Pollutant
Not available.

Snow Depth

Station Depth Elevation

Earthquake Activity

City Distance Mag. Time & Date
Minimum magnitude displayed is 2.5.

Coastal Water Temperatures

Place Temperature

Stations

Nearby Weather Stations

Station Location Temp. Windchill Dew Point Humidity Wind Precip. Elev Updated Type
                   
Wind Advisory
Statement as of 12:28 PM PDT on April 26, 2015

... Wind Advisory in effect from 4 am to 2 PM PDT Monday...

The National Weather Service in Los Angeles/Oxnard has issued a
Wind Advisory... which is in effect from 4 am to 2 PM PDT Monday.

* Wind and timing... northeast winds 15 to 25 mph with gusts to 40
mph... except isolated gusts to 50 mph across the hills of
eastern Ventura County. Strongest winds Monday morning.

* Impacts... gusty winds will make driving difficult... especially
for drivers of high profile vehicles. Major roadways that could
be affected include highways 23 and 118... as well as interstates
5 and 210.

Precautionary/preparedness actions...

When driving... use extra caution. Be prepared for sudden gusty
cross winds.